createdAt,value
2018-01-03T00:01:16.090Z,4.50
2018-01-03T00:03:43.540Z,4.60
2018-01-03T00:06:11.013Z,4.90
2018-01-03T00:08:38.477Z,4.43
2018-01-03T00:11:05.962Z,4.93
2018-01-03T00:13:34.365Z,4.83
2018-01-03T00:16:01.845Z,3.23
2018-01-03T00:18:29.275Z,4.40
2018-01-03T00:20:56.741Z,3.73
2018-01-03T00:23:24.450Z,4.93
2018-01-03T00:25:51.913Z,5.57
2018-01-03T00:28:19.393Z,4.80
2018-01-03T00:30:46.875Z,4.70
2018-01-03T00:33:14.337Z,6.50
2018-01-03T00:35:41.793Z,6.40
2018-01-03T00:38:09.280Z,5.53
2018-01-03T00:40:36.742Z,8.57
2018-01-03T00:43:04.811Z,6.37
2018-01-03T00:45:33.058Z,6.07
2018-01-03T00:48:00.522Z,7.23
2018-01-03T00:50:28.001Z,5.30
2018-01-03T00:52:55.485Z,4.80
2018-01-03T00:55:22.973Z,5.13
2018-01-03T00:57:50.464Z,5.07
2018-01-03T01:00:18.698Z,4.43
2018-01-03T01:02:46.191Z,5.13
2018-01-03T01:05:14.438Z,5.40
2018-01-03T01:07:41.929Z,5.17
2018-01-03T01:10:10.150Z,4.90
2018-01-03T01:12:37.609Z,3.90
2018-01-03T01:15:05.253Z,5.75
2018-01-03T01:17:32.710Z,6.10
2018-01-03T01:20:00.274Z,5.27
2018-01-03T01:22:27.722Z,5.60
2018-01-03T01:24:55.169Z,5.03
2018-01-03T01:27:23.417Z,5.10
2018-01-03T01:29:51.238Z,4.33
2018-01-03T01:32:18.738Z,4.90
2018-01-03T01:34:46.184Z,4.80
2018-01-03T01:37:13.662Z,4.20
2018-01-03T01:39:41.117Z,4.40
2018-01-03T01:42:09.339Z,3.83
2018-01-03T01:44:36.836Z,3.67
2018-01-03T01:47:05.978Z,3.67
2018-01-03T01:49:34.236Z,4.10
2018-01-03T01:52:02.482Z,3.70
2018-01-03T01:54:29.950Z,3.53
2018-01-03T01:56:57.417Z,3.70
2018-01-03T01:59:24.869Z,5.40
2018-01-03T02:01:52.356Z,5.93
2018-01-03T02:04:20.574Z,2.97
2018-01-03T02:06:48.053Z,4.43
2018-01-03T02:09:15.526Z,5.00
2018-01-03T02:11:42.977Z,5.30
2018-01-03T02:14:10.465Z,4.00
2018-01-03T02:16:38.711Z,3.50
2018-01-03T02:19:06.238Z,3.93
2018-01-03T02:21:33.721Z,3.63
2018-01-03T02:24:01.181Z,3.60
2018-01-03T02:26:28.665Z,3.07
2018-01-03T02:28:56.153Z,2.90
2018-01-03T02:31:23.617Z,2.57
2018-01-03T02:33:51.079Z,1.53
2018-01-03T02:36:18.564Z,2.50
2018-01-03T02:38:46.034Z,2.07
2018-01-03T02:41:13.547Z,2.43
2018-01-03T02:43:41.008Z,2.30
2018-01-03T02:46:08.486Z,2.57
2018-01-03T02:48:37.542Z,2.20
2018-01-03T02:51:05.800Z,1.80
2018-01-03T02:53:33.263Z,3.03
2018-01-03T02:56:00.734Z,1.40
2018-01-03T02:58:28.985Z,2.07
2018-01-03T03:00:56.450Z,2.37
2018-01-03T03:03:23.933Z,1.80
2018-01-03T03:05:52.208Z,2.23
2018-01-03T03:08:20.433Z,2.90
2018-01-03T03:10:47.920Z,3.17
2018-01-03T03:13:15.429Z,1.03
2018-01-03T03:15:42.883Z,2.10
2018-01-03T03:18:10.371Z,1.40
2018-01-03T03:20:37.833Z,1.90
2018-01-03T03:23:05.341Z,1.13
2018-01-03T03:25:32.816Z,1.37
2018-01-03T03:28:00.296Z,1.10
2018-01-03T03:30:28.678Z,1.60
2018-01-03T03:32:56.161Z,1.80
2018-01-03T03:35:23.665Z,1.00
2018-01-03T03:37:51.164Z,0.73
2018-01-03T03:40:18.612Z,0.73
2018-01-03T03:42:46.075Z,0.60
2018-01-03T03:45:13.541Z,0.40
2018-01-03T03:47:41.025Z,0.73
2018-01-03T03:50:08.473Z,0.70
2018-01-03T03:52:35.931Z,1.17
2018-01-03T03:55:03.426Z,0.67
2018-01-03T03:57:30.882Z,0.70
2018-01-03T03:59:58.341Z,0.90
2018-01-03T04:02:25.837Z,0.97
2018-01-03T04:04:53.330Z,1.07
2018-01-03T04:07:20.793Z,0.70
2018-01-03T04:09:48.298Z,2.20
2018-01-03T04:12:15.755Z,1.70
2018-01-03T04:14:43.231Z,1.53
2018-01-03T04:17:10.730Z,1.03
2018-01-03T04:19:39.094Z,1.33
2018-01-03T04:22:06.553Z,1.13
2018-01-03T04:24:34.032Z,1.80
2018-01-03T04:27:02.283Z,1.70
2018-01-03T04:29:29.733Z,1.13
2018-01-03T04:31:57.205Z,1.47
2018-01-03T04:34:24.669Z,1.60
2018-01-03T04:36:52.342Z,1.27
2018-01-03T04:39:20.470Z,1.80
2018-01-03T04:41:47.956Z,1.70
2018-01-03T04:44:15.569Z,1.13
2018-01-03T04:46:43.032Z,2.63
2018-01-03T04:49:10.488Z,2.37
2018-01-03T04:51:38.893Z,1.40
2018-01-03T04:54:06.381Z,1.70
2018-01-03T04:56:33.833Z,1.47
2018-01-03T04:59:01.293Z,1.50
2018-01-03T05:01:28.773Z,1.83
2018-01-03T05:03:57.275Z,1.60
2018-01-03T05:06:24.745Z,1.70
2018-01-03T05:08:52.229Z,2.30
2018-01-03T05:11:19.689Z,2.30
2018-01-03T05:13:47.181Z,3.20
2018-01-03T05:16:15.433Z,1.00
2018-01-03T05:18:42.930Z,1.63
2018-01-03T05:21:10.390Z,2.00
2018-01-03T05:23:39.561Z,2.63
2018-01-03T05:26:07.026Z,2.03
2018-01-03T05:28:34.485Z,2.40
2018-01-03T05:31:01.963Z,2.67
2018-01-03T05:33:30.192Z,2.97
2018-01-03T05:35:57.668Z,1.83
2018-01-03T05:38:25.154Z,3.53
2018-01-03T05:40:53.396Z,2.50
2018-01-03T05:43:20.858Z,3.40
2018-01-03T05:45:48.346Z,2.30
2018-01-03T05:48:16.576Z,2.37
2018-01-03T05:50:44.049Z,3.57
2018-01-03T05:53:11.529Z,1.17
2018-01-03T05:55:40.666Z,2.17
2018-01-03T05:58:08.153Z,1.80
2018-01-03T06:00:35.654Z,2.30
2018-01-03T06:03:04.417Z,2.50
2018-01-03T06:05:31.873Z,1.70
2018-01-03T06:07:59.374Z,1.90
2018-01-03T06:10:26.845Z,2.07
2018-01-03T06:12:54.301Z,1.80
2018-01-03T06:15:21.793Z,2.13
2018-01-03T06:17:49.413Z,1.80
2018-01-03T06:20:16.861Z,1.43
2018-01-03T06:22:44.344Z,1.77
2018-01-03T06:25:11.822Z,1.63
2018-01-03T06:27:39.305Z,2.93
2018-01-03T06:30:06.753Z,1.47
2018-01-03T06:32:34.225Z,1.63
2018-01-03T06:35:01.705Z,1.37
2018-01-03T06:37:29.223Z,1.70
2018-01-03T06:39:57.468Z,1.60
2018-01-03T06:42:24.934Z,1.67
2018-01-03T06:44:52.440Z,2.73
2018-01-03T06:47:20.701Z,2.37
2018-01-03T06:49:48.153Z,1.47
2018-01-03T06:54:49.441Z,0.97
2018-01-03T06:57:17.661Z,1.00
2018-01-03T06:59:45.185Z,1.33
2018-01-03T07:02:12.702Z,1.00
2018-01-03T07:04:40.158Z,0.93
2018-01-03T07:07:07.661Z,0.87
2018-01-03T07:09:35.135Z,0.87
2018-01-03T07:12:02.586Z,0.70
2018-01-03T07:14:30.053Z,1.20
2018-01-03T07:16:57.526Z,1.00
2018-01-03T07:19:25.009Z,0.80
2018-01-03T07:21:52.466Z,0.90
2018-01-03T07:24:19.928Z,0.87
2018-01-03T07:26:47.425Z,1.10
2018-01-03T07:29:15.716Z,0.90
2018-01-03T07:31:43.966Z,1.00
2018-01-03T07:34:11.953Z,1.23
2018-01-03T07:36:39.431Z,1.27
2018-01-03T07:39:06.881Z,1.10
2018-01-03T07:41:34.366Z,0.97
2018-01-03T07:44:01.849Z,1.70
2018-01-03T07:46:29.318Z,0.70
2018-01-03T07:48:56.807Z,1.00
2018-01-03T07:51:25.029Z,1.63
2018-01-03T07:53:52.500Z,0.60
2018-01-03T07:56:19.952Z,2.77
2018-01-03T07:58:47.461Z,3.23
2018-01-03T08:01:15.677Z,2.80
2018-01-03T08:03:43.165Z,2.40
2018-01-03T08:06:10.613Z,1.93
2018-01-03T08:08:38.831Z,2.10
2018-01-03T08:11:06.333Z,2.10
2018-01-03T08:13:33.785Z,1.47
2018-01-03T08:16:01.318Z,1.93
2018-01-03T08:18:28.801Z,2.13
2018-01-03T08:20:56.273Z,1.67
2018-01-03T08:23:23.728Z,1.30
2018-01-03T08:25:51.208Z,1.57
2018-01-03T08:28:18.692Z,1.13
2018-01-03T08:30:46.177Z,0.87
2018-01-03T08:33:13.637Z,2.57
2018-01-03T08:35:41.123Z,2.50
2018-01-03T08:38:08.633Z,2.00
2018-01-03T08:40:37.209Z,1.80
2018-01-03T08:43:05.182Z,1.40
2018-01-03T08:45:34.719Z,1.70
2018-01-03T08:48:02.431Z,4.20
2018-01-03T08:50:30.204Z,1.93
2018-01-03T08:52:58.676Z,2.50
2018-01-03T08:55:26.372Z,2.33
2018-01-03T08:57:54.134Z,3.03
2018-01-03T09:00:22.134Z,2.43
2018-01-03T09:02:49.787Z,4.57
2018-01-03T09:05:17.434Z,4.07
2018-01-03T09:07:45.869Z,2.33
2018-01-03T09:10:14.368Z,3.87
2018-01-03T09:12:42.183Z,4.10
2018-01-03T09:15:09.924Z,2.20
2018-01-03T09:17:38.300Z,2.70
2018-01-03T09:20:06.156Z,3.53
2018-01-03T09:22:33.919Z,1.97
2018-01-03T09:25:01.689Z,2.80
2018-01-03T09:27:30.212Z,3.43
2018-01-03T09:29:57.876Z,2.80
2018-01-03T09:32:26.073Z,2.67
2018-01-03T09:34:53.738Z,3.70
2018-01-03T09:37:21.549Z,1.60
2018-01-03T09:39:50.081Z,3.23
2018-01-03T09:42:17.756Z,2.83
2018-01-03T09:44:45.619Z,2.70
2018-01-03T09:47:14.873Z,3.60
2018-01-03T09:49:42.699Z,1.73
2018-01-03T09:52:10.402Z,1.90
2018-01-03T09:54:38.562Z,2.50
2018-01-03T09:57:06.366Z,2.60
2018-01-03T09:59:34.012Z,2.97
2018-01-03T10:02:01.655Z,3.27
2018-01-03T10:04:29.961Z,3.13
2018-01-03T10:06:57.723Z,3.53
2018-01-03T10:09:25.577Z,2.43
2018-01-03T10:11:53.243Z,5.30
2018-01-03T10:14:20.989Z,3.43
2018-01-03T10:16:49.446Z,5.83
2018-01-03T10:19:17.404Z,2.80
2018-01-03T10:21:45.227Z,4.23
2018-01-03T10:24:12.883Z,3.00
2018-01-03T10:26:41.670Z,2.50
2018-01-03T10:29:09.515Z,4.27
2018-01-03T10:31:38.104Z,2.57
2018-01-03T10:34:05.720Z,6.10
2018-01-03T10:36:33.408Z,3.47
2018-01-03T10:39:01.131Z,3.00
2018-01-03T10:41:29.151Z,3.20
2018-01-03T10:43:56.955Z,2.50
2018-01-03T10:46:24.757Z,2.73
2018-01-03T10:48:52.444Z,2.30
2018-01-03T10:51:20.125Z,5.60
2018-01-03T10:53:48.619Z,1.80
2018-01-03T10:56:17.118Z,3.60
2018-01-03T10:58:45.729Z,4.00
2018-01-03T11:01:13.456Z,4.07
2018-01-03T11:03:41.127Z,5.67
2018-01-03T11:06:08.789Z,2.33
2018-01-03T11:08:36.509Z,5.77
2018-01-03T11:11:04.226Z,3.87
2018-01-03T11:13:32.001Z,3.60
2018-01-03T11:15:59.706Z,3.60
2018-01-03T11:18:27.525Z,5.53
2018-01-03T11:20:55.892Z,3.43
2018-01-03T11:23:23.598Z,2.83
2018-01-03T11:25:51.521Z,5.20
2018-01-03T11:28:20.103Z,6.17
2018-01-03T11:30:47.982Z,4.60
2018-01-03T11:33:15.749Z,4.20
2018-01-03T11:35:43.649Z,4.80
2018-01-03T11:38:11.480Z,4.25
2018-01-03T11:40:39.101Z,4.87
2018-01-03T11:43:07.327Z,3.10
2018-01-03T11:45:35.340Z,5.70
2018-01-03T11:48:03.455Z,4.57
2018-01-03T11:50:31.128Z,7.10
2018-01-03T11:52:58.817Z,3.13
2018-01-03T11:55:26.526Z,3.03
2018-01-03T11:57:56.002Z,4.63
2018-01-03T12:00:23.738Z,3.77
2018-01-03T12:02:51.501Z,4.57
2018-01-03T12:05:19.145Z,4.10
2018-01-03T12:07:46.786Z,5.23
2018-01-03T12:10:14.485Z,4.70
2018-01-03T12:12:42.061Z,3.77
2018-01-03T12:15:09.921Z,3.63
2018-01-03T12:17:37.573Z,4.20
2018-01-03T12:20:05.390Z,3.67
2018-01-03T12:22:33.069Z,4.17
2018-01-03T12:25:01.556Z,4.60
2018-01-03T12:27:29.936Z,3.47
2018-01-03T12:29:57.544Z,3.83
2018-01-03T12:32:25.227Z,3.83
2018-01-03T12:34:52.872Z,2.70
2018-01-03T12:37:20.611Z,4.57
2018-01-03T12:39:48.239Z,6.37
2018-01-03T12:42:15.836Z,4.40
2018-01-03T12:44:43.313Z,4.70
2018-01-03T12:47:10.992Z,3.33
2018-01-03T12:49:39.377Z,2.70
2018-01-03T12:52:07.430Z,3.23
2018-01-03T12:54:35.043Z,4.00
2018-01-03T12:57:03.427Z,4.33
2018-01-03T12:59:32.237Z,4.07
2018-01-03T13:02:00.086Z,3.57
2018-01-03T13:04:27.819Z,5.10
2018-01-03T13:06:55.630Z,2.87
2018-01-03T13:09:23.396Z,3.63
2018-01-03T13:11:51.100Z,3.90
2018-01-03T13:14:18.940Z,2.00
2018-01-03T13:16:46.637Z,2.77
2018-01-03T13:19:14.628Z,3.60
2018-01-03T13:21:43.108Z,5.77
2018-01-03T13:24:10.715Z,4.03
2018-01-03T13:26:38.504Z,4.00
2018-01-03T13:29:06.123Z,5.17
2018-01-03T13:31:34.665Z,2.40
2018-01-03T13:34:02.257Z,3.13
2018-01-03T13:36:30.723Z,4.57
2018-01-03T13:38:59.435Z,4.60
2018-01-03T13:41:27.846Z,4.97
2018-01-03T13:43:55.535Z,3.47
2018-01-03T13:46:23.153Z,2.80
2018-01-03T13:48:51.072Z,4.70
2018-01-03T13:51:18.831Z,2.63
2018-01-03T13:53:46.573Z,3.07
2018-01-03T13:56:14.126Z,3.10
2018-01-03T13:58:42.895Z,2.03
2018-01-03T14:01:10.434Z,3.60
2018-01-03T14:03:39.035Z,2.40
2018-01-03T14:06:06.720Z,4.63
2018-01-03T14:08:34.486Z,5.27
2018-01-03T14:11:02.069Z,3.73
2018-01-03T14:13:29.613Z,5.60
2018-01-03T14:15:57.225Z,3.03
2018-01-03T14:18:25.856Z,2.93
2018-01-03T14:20:54.357Z,2.30
2018-01-03T14:23:22.185Z,3.50
2018-01-03T14:25:49.870Z,4.37
2018-01-03T14:28:17.580Z,2.50
2018-01-03T14:30:45.331Z,3.43
2018-01-03T14:33:13.067Z,3.30
2018-01-03T14:35:40.922Z,2.80
2018-01-03T14:38:08.613Z,4.13
2018-01-03T14:40:36.368Z,4.90
2018-01-03T14:43:04.157Z,2.10
2018-01-03T14:45:31.829Z,2.60
2018-01-03T14:47:59.512Z,2.23
2018-01-03T14:50:28.018Z,2.20
2018-01-03T14:52:55.823Z,5.27
2018-01-03T14:55:23.508Z,2.53
2018-01-03T14:57:51.611Z,3.30
2018-01-03T15:00:19.307Z,3.40
2018-01-03T15:02:47.085Z,2.93
2018-01-03T15:05:14.742Z,3.90
2018-01-03T15:07:43.164Z,3.10
2018-01-03T15:10:11.042Z,3.60
2018-01-03T15:12:38.877Z,4.47
2018-01-03T15:15:07.227Z,4.33
2018-01-03T15:17:35.784Z,3.70
2018-01-03T15:20:03.463Z,4.10
2018-01-03T15:22:31.158Z,4.57
2018-01-03T15:24:58.965Z,4.40
2018-01-03T15:27:26.675Z,2.90
2018-01-03T15:29:54.369Z,2.00
2018-01-03T15:32:22.259Z,1.57
2018-01-03T15:34:50.932Z,3.53
2018-01-03T15:37:18.675Z,3.27
2018-01-03T15:39:46.472Z,2.50
2018-01-03T15:42:14.963Z,5.00
2018-01-03T15:44:42.841Z,2.87
2018-01-03T15:47:10.513Z,4.03
2018-01-03T15:49:38.115Z,3.33
2018-01-03T15:52:05.840Z,3.40
2018-01-03T15:54:33.451Z,1.97
2018-01-03T15:57:01.091Z,2.30
2018-01-03T15:59:29.880Z,3.33
2018-01-03T16:01:57.503Z,3.23
2018-01-03T16:04:25.212Z,1.53
2018-01-03T16:06:52.948Z,3.53
2018-01-03T16:09:20.628Z,2.90
2018-01-03T16:11:48.596Z,2.07
2018-01-03T16:14:16.293Z,1.73
2018-01-03T16:16:43.937Z,1.70
2018-01-03T16:19:11.679Z,1.80
2018-01-03T16:21:40.002Z,3.60
2018-01-03T16:24:07.950Z,3.77
2018-01-03T16:26:35.538Z,2.93
2018-01-03T16:29:04.109Z,2.77
2018-01-03T16:31:31.827Z,3.90
2018-01-03T16:34:00.218Z,4.13
2018-01-03T16:36:27.974Z,4.40
2018-01-03T16:38:55.730Z,3.87
2018-01-03T16:41:23.416Z,2.83
2018-01-03T16:43:51.091Z,4.67
2018-01-03T16:46:18.825Z,4.07
2018-01-03T16:48:46.499Z,1.97
2018-01-03T16:51:15.062Z,3.20
2018-01-03T16:53:42.961Z,3.00
2018-01-03T16:56:10.707Z,3.10
2018-01-03T16:58:38.483Z,2.40
2018-01-03T17:01:06.160Z,4.60
2018-01-03T17:03:33.927Z,2.50
2018-01-03T17:06:02.086Z,5.03
2018-01-03T17:08:29.942Z,5.53
2018-01-03T17:10:57.635Z,2.60
2018-01-03T17:13:25.319Z,4.03
2018-01-03T17:15:52.985Z,6.17
2018-01-03T17:18:20.695Z,2.53
2018-01-03T17:20:48.364Z,4.30
2018-01-03T17:23:16.085Z,5.70
2018-01-03T17:25:44.485Z,4.00
2018-01-03T17:28:12.452Z,3.60
2018-01-03T17:30:40.266Z,2.73
2018-01-03T17:33:09.442Z,3.73
2018-01-03T17:35:37.226Z,4.30
2018-01-03T17:38:04.940Z,4.60
2018-01-03T17:40:32.710Z,3.77
2018-01-03T17:43:00.572Z,2.33
2018-01-03T17:45:28.614Z,4.13
2018-01-03T17:47:56.304Z,3.30
2018-01-03T17:50:23.914Z,2.60
2018-01-03T17:52:51.514Z,2.73
2018-01-03T17:55:19.322Z,4.00
2018-01-03T17:57:47.029Z,2.67
2018-01-03T18:00:14.835Z,3.40
2018-01-03T18:02:42.748Z,2.67
2018-01-03T18:05:10.402Z,3.63
2018-01-03T18:07:38.167Z,2.67
2018-01-03T18:10:05.944Z,1.67
2018-01-03T18:12:33.667Z,2.90
2018-01-03T18:15:01.489Z,4.13
2018-01-03T18:17:29.194Z,3.57
2018-01-03T18:19:57.053Z,4.13
2018-01-03T18:22:24.620Z,3.07
2018-01-03T18:24:52.400Z,2.50
2018-01-03T18:27:20.312Z,2.43
2018-01-03T18:29:48.026Z,4.37
2018-01-03T18:32:15.749Z,2.30
2018-01-03T18:34:43.542Z,3.70
2018-01-03T18:37:12.123Z,2.90
2018-01-03T18:39:39.767Z,2.80
2018-01-03T18:42:07.424Z,5.00
2018-01-03T18:44:35.016Z,4.27
2018-01-03T18:47:02.873Z,2.93
2018-01-03T18:49:31.409Z,4.67
2018-01-03T18:51:59.148Z,3.57
2018-01-03T18:54:27.188Z,3.60
2018-01-03T18:56:55.965Z,3.90
2018-01-03T18:59:23.662Z,4.00
2018-01-03T19:01:51.529Z,4.00
2018-01-03T19:04:20.156Z,4.40
2018-01-03T19:06:48.074Z,4.30
2018-01-03T19:09:16.793Z,2.73
2018-01-03T19:11:44.544Z,4.50
2018-01-03T19:14:12.184Z,2.60
2018-01-03T19:16:40.631Z,2.90
2018-01-03T19:19:08.360Z,3.07
2018-01-03T19:21:36.254Z,3.50
2018-01-03T19:24:03.982Z,3.30
2018-01-03T19:26:31.712Z,3.00
2018-01-03T19:28:59.468Z,3.97
2018-01-03T19:31:27.233Z,2.83
2018-01-03T19:33:54.949Z,3.00
2018-01-03T19:36:22.666Z,2.63
2018-01-03T19:38:50.236Z,5.67
2018-01-03T19:41:18.832Z,5.70
2018-01-03T19:43:46.565Z,4.90
2018-01-03T19:46:14.184Z,2.80
2018-01-03T19:48:41.874Z,3.40
2018-01-03T19:51:09.691Z,6.07
2018-01-03T19:53:37.783Z,5.93
2018-01-03T19:56:05.848Z,2.40
2018-01-03T19:58:33.764Z,1.90
2018-01-03T20:01:01.596Z,6.20
2018-01-03T20:03:29.345Z,2.93
2018-01-03T20:05:57.462Z,2.50
2018-01-03T20:08:25.272Z,2.67
2018-01-03T20:10:53.139Z,2.03
2018-01-03T20:13:20.997Z,4.23
2018-01-03T20:15:49.581Z,3.27
2018-01-03T20:18:17.486Z,2.97
2018-01-03T20:20:45.323Z,4.20
2018-01-03T20:23:13.193Z,4.43
2018-01-03T20:25:41.664Z,3.97
2018-01-03T20:28:09.282Z,3.73
2018-01-03T20:30:36.991Z,3.60
2018-01-03T20:33:05.624Z,3.30
2018-01-03T20:35:33.577Z,5.60
2018-01-03T20:38:01.373Z,4.07
2018-01-03T20:40:29.339Z,4.47
2018-01-03T20:42:57.252Z,2.30
2018-01-03T20:45:26.605Z,6.60
2018-01-03T20:47:54.533Z,5.90
2018-01-03T20:50:23.204Z,5.43
2018-01-03T20:52:51.089Z,3.47
2018-01-03T20:55:19.175Z,4.00
2018-01-03T20:57:46.842Z,3.57
2018-01-03T21:00:14.652Z,4.30
2018-01-03T21:02:42.690Z,2.43
2018-01-03T21:05:10.312Z,2.13
2018-01-03T21:07:38.677Z,3.03
2018-01-03T21:10:06.325Z,2.63
2018-01-03T21:12:34.178Z,3.57
2018-01-03T21:15:02.042Z,5.20
2018-01-03T21:17:29.808Z,4.10
2018-01-03T21:19:57.529Z,3.33
2018-01-03T21:22:25.458Z,4.20
2018-01-03T21:24:53.149Z,5.13
2018-01-03T21:27:21.291Z,6.20
2018-01-03T21:29:49.105Z,4.63
2018-01-03T21:32:17.534Z,3.27
2018-01-03T21:34:46.001Z,3.17
2018-01-03T21:37:13.903Z,3.40
2018-01-03T21:39:41.382Z,4.53
2018-01-03T21:42:08.840Z,5.53
2018-01-03T21:44:37.420Z,4.57
2018-01-03T21:47:05.770Z,4.70
2018-01-03T21:49:33.225Z,2.83
2018-01-03T21:52:00.707Z,3.00
2018-01-03T21:54:28.192Z,3.80
2018-01-03T21:56:55.649Z,4.77
2018-01-03T21:59:23.115Z,4.40
2018-01-03T22:01:50.601Z,6.87
2018-01-03T22:04:18.078Z,3.27
2018-01-03T22:06:45.553Z,4.13
2018-01-03T22:09:13.010Z,3.47
2018-01-03T22:11:40.476Z,4.40
2018-01-03T22:14:08.709Z,3.20
2018-01-03T22:16:36.934Z,5.20
2018-01-03T22:19:04.460Z,5.80
2018-01-03T22:21:31.873Z,5.80
2018-01-03T22:23:59.349Z,3.10
2018-01-03T22:26:26.805Z,3.93
2018-01-03T22:28:54.285Z,5.17
2018-01-03T22:31:21.776Z,4.67
2018-01-03T22:33:50.374Z,4.90
2018-01-03T22:36:17.910Z,4.17
2018-01-03T22:38:45.377Z,4.57
2018-01-03T22:41:12.865Z,6.27
2018-01-03T22:43:41.088Z,6.03
2018-01-03T22:46:08.540Z,5.53
2018-01-03T22:48:36.063Z,2.60
2018-01-03T22:51:03.521Z,4.70
2018-01-03T22:53:30.972Z,4.80
2018-01-03T22:55:58.449Z,5.40
2018-01-03T22:58:25.950Z,3.07
2018-01-03T23:00:53.397Z,5.13
2018-01-03T23:03:20.862Z,6.70
2018-01-03T23:05:48.336Z,8.63
2018-01-03T23:08:16.598Z,5.83
2018-01-03T23:10:44.072Z,3.80
2018-01-03T23:13:12.325Z,7.70
2018-01-03T23:15:39.789Z,3.63
2018-01-03T23:18:07.379Z,3.50
2018-01-03T23:20:35.638Z,7.27
2018-01-03T23:23:03.099Z,7.30
2018-01-03T23:25:30.558Z,4.40
2018-01-03T23:27:58.030Z,3.80
2018-01-03T23:30:26.293Z,5.30
2018-01-03T23:32:53.750Z,6.00
2018-01-03T23:35:21.201Z,5.73
2018-01-03T23:37:48.694Z,4.10
2018-01-03T23:40:16.156Z,7.20
2018-01-03T23:42:43.605Z,5.60
2018-01-03T23:45:11.074Z,6.10
2018-01-03T23:47:38.549Z,7.03
2018-01-03T23:50:06.002Z,3.50
2018-01-03T23:52:33.490Z,3.70
2018-01-03T23:55:00.957Z,4.40
2018-01-03T23:57:28.426Z,3.40
2018-01-03T23:59:55.882Z,5.60
